OMMAT LIRI-LIRI
Flight info
| Callsign | OMMAT |
|---|---|
| Flight time | N/A |
| Altitude | 1500 |
| Route | LOCAL |
| Aircraft | DA40/L-VGD/A |
Departure
| Time | 2026-04-28 15:30 |
|---|---|
| Airport | Salerno Costa d'Amalfi Airport (LIRI) |
Arrival
| Time | N/A |
|---|---|
| Airport | Salerno Costa d'Amalfi Airport (LIRI) |
| Time | Latitude | Longitude | Altitude | Speed | Heading |
|---|---|---|---|---|---|
| 2026-04-28 15:21 | 40.62409 | 14.91488 | 79 ft | 0 kts | 322° |
| 2026-04-28 15:23 | 40.62405 | 14.91498 | 75 ft | 9 kts | 150° |
| 2026-04-28 15:23 | 40.62436 | 14.91601 | 79 ft | 17 kts | 57° |
| 2026-04-28 15:23 | 40.62405 | 14.91694 | 79 ft | 9 kts | 144° |
| 2026-04-28 15:24 | 40.62380 | 14.91709 | 79 ft | 0 kts | 145° |
| 2026-04-28 15:24 | 40.62378 | 14.91711 | 79 ft | 0 kts | 138° |
| 2026-04-28 15:26 | 40.62375 | 14.91716 | 79 ft | 2 kts | 136° |
| 2026-04-28 15:26 | 40.62372 | 14.91721 | 82 ft | 1 kts | 111° |
| 2026-04-28 15:26 | 40.62367 | 14.91731 | 80 ft | 0 kts | 141° |
| 2026-04-28 15:27 | 40.62339 | 14.91760 | 79 ft | 14 kts | 142° |
| 2026-04-28 15:27 | 40.62273 | 14.91723 | 79 ft | 14 kts | 234° |
| 2026-04-28 15:27 | 40.62222 | 14.91637 | 79 ft | 0 kts | 233° |
| 2026-04-28 15:29 | 40.62215 | 14.91625 | 78 ft | 8 kts | 229° |
| 2026-04-28 15:29 | 40.62083 | 14.91413 | 81 ft | 61 kts | 234° |
| 2026-04-28 15:29 | 40.61766 | 14.90859 | 232 ft | 84 kts | 233° |
| 2026-04-28 15:30 | 40.61374 | 14.90211 | 372 ft | 99 kts | 232° |
| 2026-04-28 15:30 | 40.61076 | 14.89713 | 485 ft | 100 kts | 232° |
| 2026-04-28 15:30 | 40.60785 | 14.89221 | 619 ft | 100 kts | 232° |
| 2026-04-28 15:30 | 40.60365 | 14.88493 | 833 ft | 102 kts | 233° |
| 2026-04-28 15:31 | 40.59919 | 14.87708 | 986 ft | 108 kts | 234° |
| 2026-04-28 15:31 | 40.59675 | 14.86810 | 1173 ft | 107 kts | 275° |
| 2026-04-28 15:31 | 40.59940 | 14.85959 | 1506 ft | 101 kts | 319° |
| 2026-04-28 15:31 | 40.60617 | 14.85480 | 1604 ft | 112 kts | 334° |
| 2026-04-28 15:32 | 40.61284 | 14.85070 | 1926 ft | 101 kts | 333° |
| 2026-04-28 15:32 | 40.61892 | 14.84685 | 2253 ft | 97 kts | 333° |
| 2026-04-28 15:32 | 40.62529 | 14.84280 | 2476 ft | 103 kts | 334° |
| 2026-04-28 15:32 | 40.63171 | 14.83838 | 2731 ft | 104 kts | 329° |
| 2026-04-28 15:33 | 40.63759 | 14.83297 | 3026 ft | 103 kts | 316° |
| 2026-04-28 15:33 | 40.64330 | 14.82591 | 3035 ft | 122 kts | 315° |
| 2026-04-28 15:33 | 40.64981 | 14.81800 | 3052 ft | 126 kts | 322° |
| 2026-04-28 15:33 | 40.65703 | 14.81133 | 3099 ft | 128 kts | 326° |
| 2026-04-28 15:34 | 40.66456 | 14.80455 | 3009 ft | 139 kts | 326° |
| 2026-04-28 15:34 | 40.67249 | 14.79755 | 3010 ft | 136 kts | 326° |
| 2026-04-28 15:34 | 40.68013 | 14.79060 | 3036 ft | 134 kts | 322° |
| 2026-04-28 15:34 | 40.68713 | 14.78275 | 3061 ft | 131 kts | 316° |
| 2026-04-28 15:35 | 40.69380 | 14.77451 | 3125 ft | 127 kts | 316° |
| 2026-04-28 15:35 | 40.69863 | 14.75536 | 3344 ft | 123 kts | 253° |
| 2026-04-28 15:35 | 40.69765 | 14.74516 | 3716 ft | 98 kts | 271° |
| 2026-04-28 15:36 | 40.69849 | 14.73661 | 4045 ft | 99 kts | 273° |
| 2026-04-28 15:36 | 40.69998 | 14.72733 | 4193 ft | 106 kts | 292° |
| 2026-04-28 15:36 | 40.70309 | 14.71877 | 4424 ft | 104 kts | 291° |
| 2026-04-28 15:36 | 40.70615 | 14.70977 | 4477 ft | 111 kts | 291° |
| 2026-04-28 15:37 | 40.71018 | 14.70060 | 4481 ft | 115 kts | 298° |
| 2026-04-28 15:37 | 40.71404 | 14.69166 | 4549 ft | 111 kts | 294° |
| 2026-04-28 15:37 | 40.71731 | 14.68240 | 4579 ft | 112 kts | 290° |
| 2026-04-28 15:37 | 40.72009 | 14.67281 | 4510 ft | 115 kts | 283° |
| 2026-04-28 15:38 | 40.72233 | 14.66243 | 4446 ft | 117 kts | 279° |
| 2026-04-28 15:38 | 40.72396 | 14.65218 | 4312 ft | 112 kts | 274° |
| 2026-04-28 15:38 | 40.72409 | 14.64162 | 4106 ft | 121 kts | 266° |
| 2026-04-28 15:38 | 40.72434 | 14.63055 | 4097 ft | 117 kts | 282° |
| 2026-04-28 15:39 | 40.72937 | 14.62360 | 4380 ft | 97 kts | 338° |
| 2026-04-28 15:39 | 40.73590 | 14.62475 | 4447 ft | 108 kts | 33° |
| 2026-04-28 15:39 | 40.74256 | 14.63030 | 4420 ft | 113 kts | 36° |
| 2026-04-28 15:39 | 40.74881 | 14.63651 | 4467 ft | 111 kts | 50° |
| 2026-04-28 15:40 | 40.74982 | 14.64520 | 4488 ft | 94 kts | 126° |
| 2026-04-28 15:40 | 40.74448 | 14.64919 | 4494 ft | 89 kts | 170° |
| 2026-04-28 15:40 | 40.73953 | 14.64548 | 4496 ft | 94 kts | 246° |
| 2026-04-28 15:40 | 40.74181 | 14.63743 | 4499 ft | 104 kts | 321° |
| 2026-04-28 15:41 | 40.74843 | 14.63362 | 4506 ft | 105 kts | 347° |
| 2026-04-28 15:41 | 40.75564 | 14.63358 | 4509 ft | 105 kts | 13° |
| 2026-04-28 15:41 | 40.76218 | 14.63749 | 4509 ft | 103 kts | 39° |
| 2026-04-28 15:41 | 40.76646 | 14.64457 | 4500 ft | 96 kts | 71° |
| 2026-04-28 15:42 | 40.76735 | 14.65316 | 4512 ft | 100 kts | 102° |
| 2026-04-28 15:42 | 40.76485 | 14.66175 | 4518 ft | 100 kts | 128° |
| 2026-04-28 15:42 | 40.75971 | 14.66781 | 4517 ft | 100 kts | 154° |
| 2026-04-28 15:42 | 40.75304 | 14.67000 | 4516 ft | 101 kts | 180° |
| 2026-04-28 15:43 | 40.74607 | 14.66790 | 4513 ft | 105 kts | 203° |
| 2026-04-28 15:43 | 40.74026 | 14.66213 | 4517 ft | 107 kts | 225° |
| 2026-04-28 15:43 | 40.73649 | 14.65356 | 4515 ft | 109 kts | 240° |
| 2026-04-28 15:43 | 40.73285 | 14.64497 | 4507 ft | 103 kts | 236° |
| 2026-04-28 15:44 | 40.72946 | 14.63712 | 4498 ft | 96 kts | 237° |
| 2026-04-28 15:44 | 40.72616 | 14.62949 | 4498 ft | 94 kts | 237° |
| 2026-04-28 15:44 | 40.72275 | 14.62194 | 4493 ft | 94 kts | 238° |
| 2026-04-28 15:44 | 40.71950 | 14.61476 | 4504 ft | 93 kts | 237° |
| 2026-04-28 15:45 | 40.71623 | 14.60758 | 4503 ft | 88 kts | 234° |
| 2026-04-28 15:45 | 40.71312 | 14.60055 | 4504 ft | 87 kts | 236° |
| 2026-04-28 15:45 | 40.70986 | 14.59322 | 4503 ft | 93 kts | 236° |
| 2026-04-28 15:45 | 40.70665 | 14.58590 | 4507 ft | 92 kts | 236° |
| 2026-04-28 15:46 | 40.70345 | 14.57858 | 4502 ft | 93 kts | 236° |
| 2026-04-28 15:46 | 40.70036 | 14.57128 | 4511 ft | 91 kts | 238° |
| 2026-04-28 15:46 | 40.69722 | 14.56388 | 4494 ft | 92 kts | 236° |
| 2026-04-28 15:46 | 40.69446 | 14.55712 | 4499 ft | 83 kts | 236° |
| 2026-04-28 15:47 | 40.69163 | 14.55034 | 4483 ft | 83 kts | 235° |
| 2026-04-28 15:47 | 40.68911 | 14.54381 | 4514 ft | 85 kts | 238° |
| 2026-04-28 15:47 | 40.68589 | 14.53635 | 4515 ft | 97 kts | 236° |
| 2026-04-28 15:47 | 40.68256 | 14.52863 | 4520 ft | 97 kts | 236° |
| 2026-04-28 15:48 | 40.67925 | 14.52101 | 4517 ft | 96 kts | 236° |
| 2026-04-28 15:48 | 40.67585 | 14.51318 | 4518 ft | 103 kts | 236° |
| 2026-04-28 15:48 | 40.67218 | 14.50487 | 4523 ft | 105 kts | 236° |
| 2026-04-28 15:48 | 40.66854 | 14.49677 | 4506 ft | 99 kts | 234° |
| 2026-04-28 15:49 | 40.66508 | 14.48907 | 4477 ft | 94 kts | 237° |
| 2026-04-28 15:49 | 40.66168 | 14.48191 | 4493 ft | 92 kts | 236° |
| 2026-04-28 15:49 | 40.65835 | 14.47445 | 4511 ft | 101 kts | 237° |
| 2026-04-28 15:49 | 40.65463 | 14.46631 | 4514 ft | 107 kts | 236° |
| 2026-04-28 15:50 | 40.65074 | 14.45792 | 4502 ft | 105 kts | 236° |
| 2026-04-28 15:50 | 40.64711 | 14.45001 | 4507 ft | 99 kts | 236° |
| 2026-04-28 15:50 | 40.64333 | 14.44196 | 4517 ft | 112 kts | 236° |
| 2026-04-28 15:50 | 40.63890 | 14.43277 | 4493 ft | 130 kts | 237° |
| 2026-04-28 15:51 | 40.63380 | 14.42271 | 4482 ft | 135 kts | 236° |
| 2026-04-28 15:51 | 40.62865 | 14.41227 | 4508 ft | 138 kts | 236° |
| 2026-04-28 15:51 | 40.62344 | 14.40157 | 4512 ft | 139 kts | 236° |
| 2026-04-28 15:51 | 40.61827 | 14.39078 | 4515 ft | 139 kts | 237° |
| 2026-04-28 15:52 | 40.61312 | 14.38002 | 4509 ft | 138 kts | 236° |
| 2026-04-28 15:52 | 40.60801 | 14.36935 | 4510 ft | 139 kts | 236° |
| 2026-04-28 15:52 | 40.60275 | 14.35855 | 4507 ft | 141 kts | 236° |
| 2026-04-28 15:52 | 40.59747 | 14.34764 | 4507 ft | 141 kts | 236° |
| 2026-04-28 15:53 | 40.59220 | 14.33686 | 4516 ft | 140 kts | 236° |
| 2026-04-28 15:53 | 40.58687 | 14.32594 | 4510 ft | 143 kts | 236° |
| 2026-04-28 15:53 | 40.58151 | 14.31503 | 4509 ft | 141 kts | 236° |
| 2026-04-28 15:53 | 40.57624 | 14.30424 | 4508 ft | 139 kts | 236° |
| 2026-04-28 15:54 | 40.57161 | 14.29448 | 4492 ft | 108 kts | 237° |
| 2026-04-28 15:54 | 40.56822 | 14.28722 | 4485 ft | 82 kts | 236° |
| 2026-04-28 15:54 | 40.56541 | 14.28113 | 4488 ft | 75 kts | 236° |
| 2026-04-28 15:54 | 40.56281 | 14.27537 | 4496 ft | 73 kts | 236° |
| 2026-04-28 15:55 | 40.56016 | 14.26955 | 4498 ft | 75 kts | 236° |
| 2026-04-28 15:55 | 40.55747 | 14.26355 | 4499 ft | 76 kts | 237° |
| 2026-04-28 15:55 | 40.55463 | 14.25750 | 4511 ft | 80 kts | 235° |
| 2026-04-28 15:55 | 40.55169 | 14.25091 | 4513 ft | 88 kts | 250° |
| 2026-04-28 15:56 | 40.55310 | 14.24296 | 4517 ft | 95 kts | 292° |
| 2026-04-28 15:56 | 40.55597 | 14.23506 | 4516 ft | 98 kts | 301° |
| 2026-04-28 15:56 | 40.56019 | 14.22714 | 4519 ft | 119 kts | 307° |
| 2026-04-28 15:56 | 40.56612 | 14.21857 | 4521 ft | 133 kts | 311° |
| 2026-04-28 15:57 | 40.57429 | 14.21245 | 4517 ft | 141 kts | 342° |
| 2026-04-28 15:57 | 40.58384 | 14.20869 | 4514 ft | 144 kts | 342° |
| 2026-04-28 15:57 | 40.59380 | 14.20668 | 4516 ft | 146 kts | 356° |
| 2026-04-28 15:57 | 40.60375 | 14.20499 | 4517 ft | 146 kts | 350° |
| 2026-04-28 15:58 | 40.61379 | 14.20275 | 4516 ft | 147 kts | 350° |
| 2026-04-28 15:58 | 40.62384 | 14.20056 | 4515 ft | 147 kts | 350° |
| 2026-04-28 15:58 | 40.63389 | 14.19835 | 4514 ft | 146 kts | 350° |
| 2026-04-28 15:58 | 40.64396 | 14.19615 | 4513 ft | 147 kts | 350° |
| 2026-04-28 15:59 | 40.65402 | 14.19394 | 4513 ft | 146 kts | 350° |
| 2026-04-28 15:59 | 40.66068 | 14.19248 | 4513 ft | 146 kts | 350° |
| 2026-04-28 15:59 | 40.67412 | 14.18954 | 4513 ft | 146 kts | 350° |
| 2026-04-28 15:59 | 40.68416 | 14.18733 | 4512 ft | 146 kts | 350° |
| 2026-04-28 16:00 | 40.69422 | 14.18512 | 4509 ft | 147 kts | 350° |
| 2026-04-28 16:00 | 40.70430 | 14.18295 | 4510 ft | 147 kts | 350° |
| 2026-04-28 16:00 | 40.71439 | 14.18080 | 4510 ft | 147 kts | 350° |
| 2026-04-28 16:00 | 40.72450 | 14.17863 | 4510 ft | 148 kts | 350° |
| 2026-04-28 16:01 | 40.73465 | 14.17647 | 4509 ft | 148 kts | 351° |
| 2026-04-28 16:01 | 40.74478 | 14.17428 | 4510 ft | 147 kts | 349° |
| 2026-04-28 16:01 | 40.75490 | 14.17213 | 4509 ft | 147 kts | 350° |
| 2026-04-28 16:01 | 40.76502 | 14.16994 | 4508 ft | 148 kts | 350° |
| 2026-04-28 16:02 | 40.77514 | 14.16779 | 4507 ft | 147 kts | 350° |
| 2026-04-28 16:02 | 40.78527 | 14.16568 | 4508 ft | 148 kts | 350° |
| 2026-04-28 16:02 | 40.79541 | 14.16347 | 4505 ft | 148 kts | 350° |
| 2026-04-28 16:02 | 40.80550 | 14.16091 | 4513 ft | 147 kts | 339° |
| 2026-04-28 16:03 | 40.81201 | 14.15214 | 4655 ft | 133 kts | 279° |
| 2026-04-28 16:03 | 40.80836 | 14.14126 | 4424 ft | 145 kts | 210° |
| 2026-04-28 16:03 | 40.79863 | 14.14197 | 4217 ft | 135 kts | 146° |
| 2026-04-28 16:03 | 40.79506 | 14.15191 | 4081 ft | 124 kts | 88° |
| 2026-04-28 16:04 | 40.79935 | 14.16017 | 4182 ft | 96 kts | 26° |
| 2026-04-28 16:04 | 40.80527 | 14.15833 | 4384 ft | 95 kts | 294° |
| 2026-04-28 16:04 | 40.80248 | 14.15057 | 4308 ft | 108 kts | 198° |
| 2026-04-28 16:04 | 40.79955 | 14.15389 | 4441 ft | 107 kts | 79° |
| 2026-04-28 16:05 | 40.80846 | 14.16304 | 4176 ft | 142 kts | 30° |
| 2026-04-28 16:05 | 40.81743 | 14.16926 | 3951 ft | 148 kts | 27° |
| 2026-04-28 16:05 | 40.82647 | 14.17494 | 3508 ft | 137 kts | 28° |
| 2026-04-28 16:05 | 40.83371 | 14.18201 | 3122 ft | 121 kts | 49° |
| 2026-04-28 16:06 | 40.83883 | 14.18993 | 2890 ft | 105 kts | 56° |
| 2026-04-28 16:06 | 40.84241 | 14.19807 | 2639 ft | 101 kts | 63° |
| 2026-04-28 16:06 | 40.84603 | 14.20604 | 2382 ft | 100 kts | 59° |
| 2026-04-28 16:06 | 40.84989 | 14.21358 | 2125 ft | 98 kts | 57° |
| 2026-04-28 16:07 | 40.85341 | 14.22088 | 1906 ft | 94 kts | 56° |
| 2026-04-28 16:07 | 40.85678 | 14.22788 | 1714 ft | 90 kts | 58° |
| 2026-04-28 16:07 | 40.86299 | 14.24161 | 1317 ft | 84 kts | 58° |
| 2026-04-28 16:08 | 40.86615 | 14.24801 | 1122 ft | 85 kts | 57° |
| 2026-04-28 16:08 | 40.86935 | 14.25447 | 957 ft | 83 kts | 61° |
| 2026-04-28 16:08 | 40.87234 | 14.26083 | 820 ft | 78 kts | 62° |
| 2026-04-28 16:09 | 40.87744 | 14.27237 | 531 ft | 70 kts | 65° |
| 2026-04-28 16:09 | 40.87995 | 14.27768 | 410 ft | 65 kts | 67° |
| 2026-04-28 16:09 | 40.88220 | 14.28253 | 312 ft | 58 kts | 66° |
| 2026-04-28 16:10 | 40.88636 | 14.29145 | 260 ft | 52 kts | 59° |
| 2026-04-28 16:10 | 40.88794 | 14.29497 | 251 ft | 38 kts | 53° |
| 2026-04-28 16:10 | 40.89055 | 14.30027 | 234 ft | 13 kts | 60° |
| 2026-04-28 16:11 | 40.88932 | 14.30146 | 234 ft | 17 kts | 238° |
| 2026-04-28 16:11 | 40.88692 | 14.29727 | 248 ft | 32 kts | 233° |
| 2026-04-28 16:12 | 40.88658 | 14.29555 | 252 ft | 11 kts | 323° |
| 2026-04-28 16:12 | 40.88663 | 14.29550 | 252 ft | 3 kts | 336° |
| 2026-04-28 16:13 | 40.88664 | 14.29550 | 252 ft | 0 kts | 333° |
| 2026-04-28 16:13 | 40.88667 | 14.29548 | 252 ft | 1 kts | 333° |
| 2026-04-28 16:13 | 40.88764 | 14.29449 | 252 ft | 24 kts | 308° |
| 2026-04-28 16:14 | 40.88600 | 14.29050 | 262 ft | 41 kts | 234° |
| 2026-04-28 16:14 | 40.88528 | 14.28663 | 270 ft | 20 kts | 331° |
| 2026-04-28 16:15 | 40.88578 | 14.28437 | 273 ft | 15 kts | 243° |
| 2026-04-28 16:15 | 40.88495 | 14.28240 | 277 ft | 26 kts | 239° |
| 2026-04-28 16:15 | 40.88467 | 14.28175 | 278 ft | 0 kts | 232° |
| 2026-04-28 16:16 | 40.88586 | 14.28096 | 278 ft | 8 kts | 80° |
| 2026-04-28 16:16 | 40.88641 | 14.28118 | 277 ft | 14 kts | 317° |
| 2026-04-28 16:17 | 40.88647 | 14.27901 | 280 ft | 13 kts | 233° |
| 2026-04-28 16:17 | 40.88590 | 14.27799 | 282 ft | 15 kts | 230° |
| 2026-04-28 16:17 | 40.88527 | 14.27703 | 285 ft | 9 kts | 249° |
| 2026-04-28 16:17 | 40.88528 | 14.27662 | 286 ft | 0 kts | 278° |
| 2026-04-28 16:18 | 40.88506 | 14.27642 | 286 ft | 14 kts | 214° |
| 2026-04-28 16:18 | 40.88414 | 14.27545 | 291 ft | 16 kts | 215° |
| 2026-04-28 16:18 | 40.88331 | 14.27472 | 293 ft | 5 kts | 116° |
| 2026-04-28 16:18 | 40.88328 | 14.27480 | 292 ft | 3 kts | 114° |
| 2026-04-28 16:19 | 40.88311 | 14.27508 | 292 ft | 3 kts | 116° |
| 2026-04-28 16:19 | 40.88311 | 14.27509 | 292 ft | 0 kts | 78° |